createdAt,value
2022-08-03T00:00:49.235Z,100312.25
2022-08-03T00:06:03.922Z,100311.19
2022-08-03T00:11:07.074Z,100305.72
2022-08-03T00:16:10.246Z,100304.50
2022-08-03T00:21:12.229Z,100303.69
2022-08-03T00:26:13.881Z,100304.06
2022-08-03T00:31:15.637Z,100295.88
2022-08-03T00:36:17.236Z,100295.94
2022-08-03T00:41:18.809Z,100293.44
2022-08-03T00:46:22.363Z,100290.78
2022-08-03T00:51:24.133Z,100290.13
2022-08-03T00:56:26.147Z,100297.41
2022-08-03T01:01:29.156Z,100292.03
2022-08-03T01:06:44.316Z,100295.34
2022-08-03T01:12:44.294Z,100299.22
2022-08-03T01:18:00.699Z,100295.13
2022-08-03T01:23:31.107Z,100299.59
2022-08-03T01:28:38.210Z,100296.72
2022-08-03T01:33:47.107Z,100294.41
2022-08-03T01:38:52.498Z,100287.97
2022-08-03T01:44:30.134Z,100290.78
2022-08-03T01:49:17.591Z,100292.56
2022-08-03T01:54:19.811Z,100289.34
2022-08-03T01:59:22.208Z,100291.69
2022-08-03T02:04:24.507Z,100298.22
2022-08-03T02:09:27.921Z,100292.78
2022-08-03T02:14:30.130Z,100296.13
2022-08-03T02:19:35.779Z,100279.72
2022-08-03T02:24:37.649Z,100276.41
2022-08-03T02:29:40.958Z,100276.00
2022-08-03T02:34:46.705Z,100273.94
2022-08-03T02:39:49.297Z,100270.63
2022-08-03T02:44:53.303Z,100265.34
2022-08-03T02:49:56.847Z,100264.84
2022-08-03T02:55:00.495Z,100278.38
2022-08-03T03:00:02.286Z,100272.44
2022-08-03T03:05:56.336Z,100277.16
2022-08-03T03:10:26.208Z,100270.03
2022-08-03T03:15:28.457Z,100270.16
2022-08-03T03:20:30.674Z,100277.28
2022-08-03T03:25:33.217Z,100279.53
2022-08-03T03:30:34.804Z,100270.16
2022-08-03T03:35:38.863Z,100271.81
2022-08-03T03:40:41.213Z,100271.88
2022-08-03T03:45:43.303Z,100272.13
2022-08-03T03:50:44.915Z,100271.13
2022-08-03T03:56:01.601Z,100275.91
2022-08-03T04:01:04.670Z,100276.41
2022-08-03T04:06:24.842Z,100270.63
2022-08-03T04:11:31.798Z,100279.50
2022-08-03T04:16:43.173Z,100282.03
2022-08-03T04:21:48.652Z,100286.06
2022-08-03T04:26:52.738Z,100289.00
2022-08-03T04:31:54.935Z,100290.44
2022-08-03T04:36:59.648Z,100296.38
2022-08-03T04:42:08.493Z,100297.28
2022-08-03T04:47:10.639Z,100302.03
2022-08-03T04:52:12.321Z,100302.88
2022-08-03T04:57:22.152Z,100306.06
2022-08-03T05:02:24.921Z,100306.97
2022-08-03T05:07:26.547Z,100312.59
2022-08-03T05:12:37.712Z,100308.13
2022-08-03T05:17:39.332Z,100305.44
2022-08-03T05:22:40.927Z,100302.38
2022-08-03T05:27:42.538Z,100303.88
2022-08-03T05:32:44.087Z,100309.31
2022-08-03T05:37:54.759Z,100307.38
2022-08-03T05:42:57.008Z,100305.44
2022-08-03T05:47:59.613Z,100314.41
2022-08-03T05:53:01.154Z,100310.47
2022-08-03T05:58:03.859Z,100305.16
2022-08-03T06:03:05.570Z,100308.25
2022-08-03T06:08:07.184Z,100303.81
2022-08-03T06:13:08.714Z,100306.78
2022-08-03T06:18:10.348Z,100299.28
2022-08-03T06:23:16.249Z,100303.88
2022-08-03T06:28:51.643Z,100303.88
2022-08-03T06:34:31.589Z,100304.78
2022-08-03T06:39:03.759Z,100302.00
2022-08-03T06:44:05.744Z,100306.19
2022-08-03T06:49:08.011Z,100303.75
2022-08-03T06:54:09.834Z,100306.66
2022-08-03T07:00:08.338Z,100316.75
2022-08-03T07:04:33.392Z,100309.56
2022-08-03T07:09:34.964Z,100321.69
2022-08-03T07:14:36.548Z,100317.03
2022-08-03T07:19:38.272Z,100311.81
2022-08-03T07:24:39.811Z,100307.31
2022-08-03T07:29:41.342Z,100315.84
2022-08-03T07:34:42.877Z,100311.78
2022-08-03T07:39:44.835Z,100311.00
2022-08-03T07:44:46.374Z,100309.34
2022-08-03T07:49:48.019Z,100311.56
2022-08-03T07:54:49.542Z,100315.63
2022-08-03T07:59:57.171Z,100310.31
2022-08-03T08:05:13.680Z,100298.72
2022-08-03T08:10:15.240Z,100301.22
2022-08-03T08:15:16.975Z,100295.88
2022-08-03T08:20:30.415Z,100292.97
2022-08-03T08:25:33.413Z,100286.97
2022-08-03T08:30:35.131Z,100287.38
2022-08-03T08:35:37.231Z,100283.66
2022-08-03T08:40:38.866Z,100288.41
2022-08-03T08:45:41.404Z,100282.53
2022-08-03T08:50:43.172Z,100279.00
2022-08-03T08:55:59.365Z,100277.84
2022-08-03T09:01:02.002Z,100283.91
2022-08-03T09:06:04.277Z,100279.03
2022-08-03T09:11:05.913Z,100275.00
2022-08-03T09:16:17.291Z,100270.56
2022-08-03T09:21:35.491Z,100268.38
2022-08-03T09:26:37.949Z,100262.78
2022-08-03T09:31:43.672Z,100260.59
2022-08-03T09:36:50.805Z,100253.13
2022-08-03T09:42:07.457Z,100256.75
2022-08-03T09:47:12.314Z,100260.16
2022-08-03T09:52:37.967Z,100255.09
2022-08-03T09:57:41.620Z,100255.78
2022-08-03T10:02:46.199Z,100253.63
2022-08-03T10:07:49.966Z,100246.97
2022-08-03T10:12:51.779Z,100238.53
2022-08-03T10:17:53.375Z,100239.03
2022-08-03T10:22:55.210Z,100232.22
2022-08-03T10:27:57.993Z,100226.19
2022-08-03T10:33:03.519Z,100223.47
2022-08-03T10:38:10.598Z,100228.28
2022-08-03T10:43:19.028Z,100231.06
2022-08-03T10:48:20.833Z,100225.84
2022-08-03T10:53:36.481Z,100225.88
2022-08-03T10:58:53.218Z,100212.16
2022-08-03T11:03:58.837Z,100221.47
2022-08-03T11:09:09.659Z,100215.97
2022-08-03T11:14:16.796Z,100207.16
2022-08-03T11:19:24.100Z,100209.31
2022-08-03T11:24:41.077Z,100197.56
2022-08-03T11:30:19.266Z,100198.34
2022-08-03T11:35:32.171Z,100194.56
2022-08-03T11:40:36.581Z,100191.88
2022-08-03T11:45:38.550Z,100188.00
2022-08-03T11:50:40.379Z,100194.66
2022-08-03T11:55:44.364Z,100185.25
2022-08-03T12:00:45.971Z,100181.97
2022-08-03T12:05:51.909Z,100175.03
2022-08-03T12:10:55.538Z,100176.97
2022-08-03T12:15:59.063Z,100179.75
2022-08-03T12:21:10.204Z,100169.56
2022-08-03T12:26:11.909Z,100164.31
2022-08-03T12:31:13.667Z,100158.53
2022-08-03T12:36:15.338Z,100159.91
2022-08-03T12:41:27.849Z,100153.31
2022-08-03T12:46:34.925Z,100148.06
2022-08-03T12:51:42.348Z,100143.63
2022-08-03T12:57:02.810Z,100146.41
2022-08-03T13:02:09.339Z,100140.06
2022-08-03T13:07:17.987Z,100143.09
2022-08-03T13:12:23.193Z,100140.66
2022-08-03T13:17:25.549Z,100144.47
2022-08-03T13:22:30.470Z,100133.47
2022-08-03T13:28:04.293Z,100132.06
2022-08-03T13:32:53.790Z,100129.59
2022-08-03T13:37:55.386Z,100127.91
2022-08-03T13:42:57.029Z,100124.91
2022-08-03T13:47:58.632Z,100123.44
2022-08-03T13:53:00.241Z,100114.16
2022-08-03T13:58:07.248Z,100119.09
2022-08-03T14:03:14.221Z,100095.91
2022-08-03T14:08:16.352Z,100096.66
2022-08-03T14:13:18.382Z,100095.56
2022-08-03T14:18:28.805Z,100094.50
2022-08-03T14:23:37.424Z,100078.16
2022-08-03T14:28:39.015Z,100093.66
2022-08-03T14:33:40.728Z,100083.69
2022-08-03T14:38:42.310Z,100081.84
2022-08-03T14:44:00.468Z,100074.03
2022-08-03T14:50:30.829Z,100076.19
2022-08-03T14:54:26.890Z,100075.41
2022-08-03T14:59:28.428Z,100069.97
2022-08-03T15:04:49.970Z,100057.50
2022-08-03T15:09:51.526Z,100064.72
2022-08-03T15:14:53.106Z,100059.09
2022-08-03T15:20:01.364Z,100045.88
2022-08-03T15:26:28.461Z,100037.94
2022-08-03T15:30:31.304Z,100038.53
2022-08-03T15:35:33.179Z,100041.66
2022-08-03T15:40:34.761Z,100048.94
2022-08-03T15:45:36.967Z,100034.56
2022-08-03T15:50:38.820Z,100023.53
2022-08-03T15:55:40.487Z,100026.44
2022-08-03T16:00:43.006Z,100027.34
2022-08-03T16:05:44.620Z,100028.22
2022-08-03T16:10:47.218Z,100017.44
2022-08-03T16:15:50.231Z,100018.19
2022-08-03T16:20:51.775Z,100019.94
2022-08-03T16:25:53.569Z,100015.22
2022-08-03T16:30:55.157Z,100010.81
2022-08-03T16:35:56.792Z,100010.53
2022-08-03T16:40:58.424Z,100008.34
2022-08-03T16:46:00.114Z,100010.84
2022-08-03T16:51:02.863Z,100012.78
2022-08-03T16:56:09.943Z,100013.31
2022-08-03T17:01:24.253Z,100015.81
2022-08-03T17:06:34.277Z,100016.09
2022-08-03T17:11:46.389Z,100017.75
2022-08-03T17:16:52.750Z,100024.13
2022-08-03T17:22:09.800Z,100019.13
2022-08-03T17:28:50.747Z,100023.03
2022-08-03T17:32:56.699Z,100028.63
2022-08-03T17:38:03.401Z,100028.59
2022-08-03T17:44:14.509Z,100030.53
2022-08-03T17:48:27.278Z,100032.75
2022-08-03T17:53:33.455Z,100041.88
2022-08-03T17:58:55.073Z,100036.88
2022-08-03T18:03:59.262Z,100040.72
2022-08-03T18:09:05.308Z,100045.47
2022-08-03T18:14:32.397Z,100042.38
2022-08-03T18:20:03.606Z,100044.59
2022-08-03T18:24:59.129Z,100053.47
2022-08-03T18:30:01.852Z,100058.16
2022-08-03T18:35:04.229Z,100059.28
2022-08-03T18:40:07.384Z,100055.69
2022-08-03T18:45:55.245Z,100063.16
2022-08-03T18:50:36.720Z,100075.59
2022-08-03T18:56:01.594Z,100075.59
2022-08-03T19:01:06.406Z,100079.44
2022-08-03T19:06:28.781Z,100084.13
2022-08-03T19:12:14.534Z,100082.16
2022-08-03T19:17:07.548Z,100087.66
2022-08-03T19:22:10.837Z,100088.22
2022-08-03T19:27:13.072Z,100084.38
2022-08-03T19:32:19.193Z,100089.31
2022-08-03T19:37:22.086Z,100083.78
2022-08-03T19:42:31.936Z,100081.59
2022-08-03T19:47:39.998Z,100073.31
2022-08-03T19:52:47.117Z,100083.22
2022-08-03T19:57:53.781Z,100077.69
2022-08-03T20:02:59.115Z,100084.00
2022-08-03T20:08:03.504Z,100091.66
2022-08-03T20:13:05.098Z,100083.94
2022-08-03T20:18:16.679Z,100083.06
2022-08-03T20:23:19.762Z,100083.03
2022-08-03T20:28:26.673Z,100079.97
2022-08-03T20:33:46.326Z,100079.69
2022-08-03T20:38:51.980Z,100083.47
2022-08-03T20:43:53.715Z,100084.53
2022-08-03T20:48:57.260Z,100083.34
2022-08-03T20:54:03.035Z,100085.75
2022-08-03T20:59:07.241Z,100086.25
2022-08-03T21:04:21.108Z,100082.06
2022-08-03T21:09:40.054Z,100084.50
2022-08-03T21:15:01.956Z,100092.38
2022-08-03T21:20:07.958Z,100084.06
2022-08-03T21:25:09.764Z,100092.78
2022-08-03T21:30:11.915Z,100095.47
2022-08-03T21:35:14.043Z,100104.22
2022-08-03T21:40:16.640Z,100095.31
2022-08-03T21:45:18.282Z,100095.53
2022-08-03T21:50:20.686Z,100090.81
2022-08-03T21:55:26.689Z,100098.94
2022-08-03T22:00:28.304Z,100097.28
2022-08-03T22:05:43.438Z,100097.56
2022-08-03T22:10:46.898Z,100102.16
2022-08-03T22:15:48.862Z,100100.34
2022-08-03T22:20:51.661Z,100098.13
2022-08-03T22:25:53.571Z,100102.16
2022-08-03T22:30:55.265Z,100096.34
2022-08-03T22:35:58.935Z,100099.69
2022-08-03T22:41:00.680Z,100104.72
2022-08-03T22:46:10.565Z,100102.97
2022-08-03T22:51:15.369Z,100104.28
2022-08-03T22:56:16.912Z,100101.22
2022-08-03T23:01:20.572Z,100101.16
2022-08-03T23:06:23.468Z,100097.94
2022-08-03T23:11:25.922Z,100106.56
2022-08-03T23:16:29.237Z,100102.34
2022-08-03T23:21:53.989Z,100104.13
2022-08-03T23:26:53.548Z,100102.53
2022-08-03T23:31:56.685Z,100098.28
2022-08-03T23:37:00.919Z,100100.63
2022-08-03T23:42:03.074Z,100101.78
2022-08-03T23:47:04.723Z,100104.63
2022-08-03T23:52:25.454Z,100097.41
2022-08-03T23:57:48.999Z,100094.53
